sensor_id;sensor_type;location;lat;lon;timestamp;temperature;humidity
56729;DHT22;42612;52.232;7.560;2023-02-11T00:00:15;9.80;61.10
56729;DHT22;42612;52.232;7.560;2023-02-11T00:02:41;9.80;61.20
56729;DHT22;42612;52.232;7.560;2023-02-11T00:05:08;9.80;61.30
56729;DHT22;42612;52.232;7.560;2023-02-11T00:07:34;9.80;61.30
56729;DHT22;42612;52.232;7.560;2023-02-11T00:10:00;9.80;61.30
56729;DHT22;42612;52.232;7.560;2023-02-11T00:12:27;9.80;61.30
56729;DHT22;42612;52.232;7.560;2023-02-11T00:14:53;9.80;61.40
56729;DHT22;42612;52.232;7.560;2023-02-11T00:17:19;9.80;61.40
56729;DHT22;42612;52.232;7.560;2023-02-11T00:19:48;9.80;61.60
56729;DHT22;42612;52.232;7.560;2023-02-11T00:22:15;9.80;61.90
56729;DHT22;42612;52.232;7.560;2023-02-11T00:24:41;9.80;61.70
56729;DHT22;42612;52.232;7.560;2023-02-11T00:27:06;9.80;61.60
56729;DHT22;42612;52.232;7.560;2023-02-11T00:29:32;9.80;61.60
56729;DHT22;42612;52.232;7.560;2023-02-11T00:31:58;9.80;61.70
56729;DHT22;42612;52.232;7.560;2023-02-11T00:34:32;9.80;61.70
56729;DHT22;42612;52.232;7.560;2023-02-11T00:36:58;9.80;61.70
56729;DHT22;42612;52.232;7.560;2023-02-11T00:39:24;9.80;61.90
56729;DHT22;42612;52.232;7.560;2023-02-11T00:41:50;9.80;61.90
56729;DHT22;42612;52.232;7.560;2023-02-11T00:44:16;9.80;61.70
56729;DHT22;42612;52.232;7.560;2023-02-11T00:46:41;9.80;61.70
56729;DHT22;42612;52.232;7.560;2023-02-11T00:49:07;9.80;61.80
56729;DHT22;42612;52.232;7.560;2023-02-11T00:51:33;9.80;62.60
56729;DHT22;42612;52.232;7.560;2023-02-11T00:53:58;9.80;61.90
56729;DHT22;42612;52.232;7.560;2023-02-11T00:56:24;9.80;61.80
56729;DHT22;42612;52.232;7.560;2023-02-11T00:58:50;9.80;61.80
56729;DHT22;42612;52.232;7.560;2023-02-11T01:01:15;9.80;61.80
56729;DHT22;42612;52.232;7.560;2023-02-11T01:03:41;9.80;61.80
56729;DHT22;42612;52.232;7.560;2023-02-11T01:06:08;9.80;62.00
56729;DHT22;42612;52.232;7.560;2023-02-11T01:08:34;9.80;61.90
56729;DHT22;42612;52.232;7.560;2023-02-11T01:11:04;9.80;61.80
56729;DHT22;42612;52.232;7.560;2023-02-11T01:13:34;9.80;62.00
56729;DHT22;42612;52.232;7.560;2023-02-11T01:16:01;9.80;62.00
56729;DHT22;42612;52.232;7.560;2023-02-11T01:18:28;9.80;61.80
56729;DHT22;42612;52.232;7.560;2023-02-11T01:20:54;9.80;61.90
56729;DHT22;42612;52.232;7.560;2023-02-11T01:23:20;9.80;61.90
56729;DHT22;42612;52.232;7.560;2023-02-11T01:25:46;9.80;61.80
56729;DHT22;42612;52.232;7.560;2023-02-11T01:28:25;9.80;61.90
56729;DHT22;42612;52.232;7.560;2023-02-11T01:30:51;9.80;62.00
56729;DHT22;42612;52.232;7.560;2023-02-11T01:33:17;9.90;61.90
56729;DHT22;42612;52.232;7.560;2023-02-11T01:35:44;9.90;61.90
56729;DHT22;42612;52.232;7.560;2023-02-11T01:38:18;9.80;61.80
56729;DHT22;42612;52.232;7.560;2023-02-11T01:40:57;9.90;62.30
56729;DHT22;42612;52.232;7.560;2023-02-11T01:43:27;9.90;62.20
56729;DHT22;42612;52.232;7.560;2023-02-11T01:48:56;9.90;62.60
56729;DHT22;42612;52.232;7.560;2023-02-11T01:51:26;9.90;62.00
56729;DHT22;42612;52.232;7.560;2023-02-11T01:53:56;9.90;61.80
56729;DHT22;42612;52.232;7.560;2023-02-11T01:56:44;9.90;61.80
56729;DHT22;42612;52.232;7.560;2023-02-11T01:59:34;9.90;61.80
56729;DHT22;42612;52.232;7.560;2023-02-11T02:02:08;9.90;61.70
56729;DHT22;42612;52.232;7.560;2023-02-11T02:04:51;9.90;61.70
56729;DHT22;42612;52.232;7.560;2023-02-11T02:07:29;9.90;62.00
56729;DHT22;42612;52.232;7.560;2023-02-11T02:10:04;9.90;62.00
56729;DHT22;42612;52.232;7.560;2023-02-11T02:12:32;9.90;61.90
56729;DHT22;42612;52.232;7.560;2023-02-11T02:15:21;9.90;61.90
56729;DHT22;42612;52.232;7.560;2023-02-11T02:25:02;9.90;62.70
56729;DHT22;42612;52.232;7.560;2023-02-11T02:31:38;9.90;62.30
56729;DHT22;42612;52.232;7.560;2023-02-11T02:34:43;9.90;62.40
56729;DHT22;42612;52.232;7.560;2023-02-11T02:37:20;9.90;62.40
56729;DHT22;42612;52.232;7.560;2023-02-11T02:39:51;9.90;61.90
56729;DHT22;42612;52.232;7.560;2023-02-11T02:42:17;9.90;61.60
56729;DHT22;42612;52.232;7.560;2023-02-11T02:44:52;10.00;61.80
56729;DHT22;42612;52.232;7.560;2023-02-11T02:47:18;9.90;62.10
56729;DHT22;42612;52.232;7.560;2023-02-11T02:49:43;9.90;61.80
56729;DHT22;42612;52.232;7.560;2023-02-11T02:52:28;9.90;61.90
56729;DHT22;42612;52.232;7.560;2023-02-11T02:58:26;9.90;62.50
56729;DHT22;42612;52.232;7.560;2023-02-11T03:01:25;9.90;62.20
56729;DHT22;42612;52.232;7.560;2023-02-11T03:07:17;9.90;62.30
56729;DHT22;42612;52.232;7.560;2023-02-11T03:09:57;9.90;62.90
56729;DHT22;42612;52.232;7.560;2023-02-11T03:12:26;9.90;62.10
56729;DHT22;42612;52.232;7.560;2023-02-11T03:14:54;9.90;62.10
56729;DHT22;42612;52.232;7.560;2023-02-11T03:17:20;9.90;61.60
56729;DHT22;42612;52.232;7.560;2023-02-11T03:19:49;9.90;61.70
56729;DHT22;42612;52.232;7.560;2023-02-11T03:22:23;9.90;61.90
56729;DHT22;42612;52.232;7.560;2023-02-11T03:24:52;9.90;62.00
56729;DHT22;42612;52.232;7.560;2023-02-11T03:30:17;9.90;62.20
56729;DHT22;42612;52.232;7.560;2023-02-11T03:32:58;9.90;62.00
56729;DHT22;42612;52.232;7.560;2023-02-11T03:35:55;9.90;62.30
56729;DHT22;42612;52.232;7.560;2023-02-11T03:38:32;9.90;62.60
56729;DHT22;42612;52.232;7.560;2023-02-11T03:41:00;9.90;62.10
56729;DHT22;42612;52.232;7.560;2023-02-11T03:43:43;9.90;61.90
56729;DHT22;42612;52.232;7.560;2023-02-11T03:46:14;10.00;62.20
56729;DHT22;42612;52.232;7.560;2023-02-11T03:48:48;9.90;62.00
56729;DHT22;42612;52.232;7.560;2023-02-11T03:51:16;10.00;62.20
56729;DHT22;42612;52.232;7.560;2023-02-11T03:53:44;9.90;62.00
56729;DHT22;42612;52.232;7.560;2023-02-11T03:56:14;9.90;62.10
56729;DHT22;42612;52.232;7.560;2023-02-11T03:58:46;10.00;62.20
56729;DHT22;42612;52.232;7.560;2023-02-11T04:01:12;10.00;62.20
56729;DHT22;42612;52.232;7.560;2023-02-11T04:03:38;10.00;62.10
56729;DHT22;42612;52.232;7.560;2023-02-11T04:06:04;10.00;62.10
56729;DHT22;42612;52.232;7.560;2023-02-11T04:08:30;10.00;62.10
56729;DHT22;42612;52.232;7.560;2023-02-11T04:10:57;10.00;62.10
56729;DHT22;42612;52.232;7.560;2023-02-11T04:13:23;10.00;62.20
56729;DHT22;42612;52.232;7.560;2023-02-11T04:15:48;10.00;62.10
56729;DHT22;42612;52.232;7.560;2023-02-11T04:18:14;10.00;62.20
56729;DHT22;42612;52.232;7.560;2023-02-11T04:20:40;10.00;62.20
56729;DHT22;42612;52.232;7.560;2023-02-11T04:23:05;10.00;62.00
56729;DHT22;42612;52.232;7.560;2023-02-11T04:25:31;10.00;62.10
56729;DHT22;42612;52.232;7.560;2023-02-11T04:27:57;10.00;62.00
56729;DHT22;42612;52.232;7.560;2023-02-11T04:30:22;10.00;62.10
56729;DHT22;42612;52.232;7.560;2023-02-11T04:32:48;10.00;62.10
56729;DHT22;42612;52.232;7.560;2023-02-11T04:35:14;10.00;62.20
56729;DHT22;42612;52.232;7.560;2023-02-11T04:37:39;10.00;62.20
56729;DHT22;42612;52.232;7.560;2023-02-11T04:40:06;10.00;62.20
56729;DHT22;42612;52.232;7.560;2023-02-11T04:42:32;10.00;62.30
56729;DHT22;42612;52.232;7.560;2023-02-11T04:44:57;10.00;62.30
56729;DHT22;42612;52.232;7.560;2023-02-11T04:47:23;10.00;62.40
56729;DHT22;42612;52.232;7.560;2023-02-11T04:49:49;10.00;62.40
56729;DHT22;42612;52.232;7.560;2023-02-11T04:52:14;10.00;62.40
56729;DHT22;42612;52.232;7.560;2023-02-11T04:54:40;10.00;62.30
56729;DHT22;42612;52.232;7.560;2023-02-11T04:57:06;10.00;62.30
56729;DHT22;42612;52.232;7.560;2023-02-11T04:59:31;10.00;62.30
56729;DHT22;42612;52.232;7.560;2023-02-11T05:01:57;10.00;62.50
56729;DHT22;42612;52.232;7.560;2023-02-11T05:04:23;9.90;62.40
56729;DHT22;42612;52.232;7.560;2023-02-11T05:06:49;9.90;62.30
56729;DHT22;42612;52.232;7.560;2023-02-11T05:09:14;9.90;62.30
56729;DHT22;42612;52.232;7.560;2023-02-11T05:11:41;9.90;62.40
56729;DHT22;42612;52.232;7.560;2023-02-11T05:14:07;9.90;62.50
56729;DHT22;42612;52.232;7.560;2023-02-11T05:16:33;9.90;62.50
56729;DHT22;42612;52.232;7.560;2023-02-11T05:18:59;9.90;62.40
56729;DHT22;42612;52.232;7.560;2023-02-11T05:21:24;10.00;62.60
56729;DHT22;42612;52.232;7.560;2023-02-11T05:23:50;9.90;62.50
56729;DHT22;42612;52.232;7.560;2023-02-11T05:26:16;9.90;62.50
56729;DHT22;42612;52.232;7.560;2023-02-11T05:28:43;10.00;62.60
56729;DHT22;42612;52.232;7.560;2023-02-11T05:31:09;9.90;62.60
56729;DHT22;42612;52.232;7.560;2023-02-11T05:33:36;9.90;62.50
56729;DHT22;42612;52.232;7.560;2023-02-11T05:36:07;9.90;62.50
56729;DHT22;42612;52.232;7.560;2023-02-11T05:38:35;9.90;62.70
56729;DHT22;42612;52.232;7.560;2023-02-11T05:41:02;10.00;62.70
56729;DHT22;42612;52.232;7.560;2023-02-11T05:43:28;10.00;62.70
56729;DHT22;42612;52.232;7.560;2023-02-11T05:45:54;10.00;62.70
56729;DHT22;42612;52.232;7.560;2023-02-11T05:48:19;10.00;62.70
56729;DHT22;42612;52.232;7.560;2023-02-11T05:50:45;9.90;62.70
56729;DHT22;42612;52.232;7.560;2023-02-11T05:53:11;10.00;62.70
56729;DHT22;42612;52.232;7.560;2023-02-11T05:55:37;9.90;62.70
56729;DHT22;42612;52.232;7.560;2023-02-11T05:58:03;10.00;62.80
56729;DHT22;42612;52.232;7.560;2023-02-11T06:00:29;10.00;62.80
56729;DHT22;42612;52.232;7.560;2023-02-11T06:02:54;9.90;62.70
56729;DHT22;42612;52.232;7.560;2023-02-11T06:05:20;10.00;62.80
56729;DHT22;42612;52.232;7.560;2023-02-11T06:07:46;10.00;62.70
56729;DHT22;42612;52.232;7.560;2023-02-11T06:10:12;10.00;62.70
56729;DHT22;42612;52.232;7.560;2023-02-11T06:12:37;9.90;62.70
56729;DHT22;42612;52.232;7.560;2023-02-11T06:15:04;10.00;62.90
56729;DHT22;42612;52.232;7.560;2023-02-11T06:17:31;10.00;63.00
56729;DHT22;42612;52.232;7.560;2023-02-11T06:20:01;9.90;62.80
56729;DHT22;42612;52.232;7.560;2023-02-11T06:22:29;9.90;62.90
56729;DHT22;42612;52.232;7.560;2023-02-11T06:24:55;9.90;62.90
56729;DHT22;42612;52.232;7.560;2023-02-11T06:27:20;9.90;62.90
56729;DHT22;42612;52.232;7.560;2023-02-11T06:29:46;10.00;63.00
56729;DHT22;42612;52.232;7.560;2023-02-11T06:32:12;9.90;62.90
56729;DHT22;42612;52.232;7.560;2023-02-11T06:34:38;9.90;63.00
56729;DHT22;42612;52.232;7.560;2023-02-11T06:37:04;9.90;63.00
56729;DHT22;42612;52.232;7.560;2023-02-11T06:39:30;9.90;63.00
56729;DHT22;42612;52.232;7.560;2023-02-11T06:41:55;9.90;63.10
56729;DHT22;42612;52.232;7.560;2023-02-11T06:44:21;9.90;63.10
56729;DHT22;42612;52.232;7.560;2023-02-11T06:46:47;9.90;63.10
56729;DHT22;42612;52.232;7.560;2023-02-11T06:49:13;9.90;63.10
56729;DHT22;42612;52.232;7.560;2023-02-11T06:51:39;9.90;63.20
56729;DHT22;42612;52.232;7.560;2023-02-11T06:54:06;9.90;63.10
56729;DHT22;42612;52.232;7.560;2023-02-11T06:56:32;9.90;63.20
56729;DHT22;42612;52.232;7.560;2023-02-11T06:58:58;9.90;63.20
56729;DHT22;42612;52.232;7.560;2023-02-11T07:01:26;9.90;63.30
56729;DHT22;42612;52.232;7.560;2023-02-11T07:03:52;9.90;63.40
56729;DHT22;42612;52.232;7.560;2023-02-11T07:06:20;9.90;63.30
56729;DHT22;42612;52.232;7.560;2023-02-11T07:08:47;9.90;63.30
56729;DHT22;42612;52.232;7.560;2023-02-11T07:11:16;9.90;63.20
56729;DHT22;42612;52.232;7.560;2023-02-11T07:13:44;9.90;63.30
56729;DHT22;42612;52.232;7.560;2023-02-11T07:16:13;9.90;63.30
56729;DHT22;42612;52.232;7.560;2023-02-11T07:18:40;9.90;63.40
56729;DHT22;42612;52.232;7.560;2023-02-11T07:21:07;9.90;63.20
56729;DHT22;42612;52.232;7.560;2023-02-11T07:23:37;9.90;63.40
56729;DHT22;42612;52.232;7.560;2023-02-11T07:26:05;9.90;63.40
56729;DHT22;42612;52.232;7.560;2023-02-11T07:28:33;9.90;63.40
56729;DHT22;42612;52.232;7.560;2023-02-11T07:31:08;9.90;63.50
56729;DHT22;42612;52.232;7.560;2023-02-11T07:33:36;9.90;63.70
56729;DHT22;42612;52.232;7.560;2023-02-11T07:36:03;9.90;63.60
56729;DHT22;42612;52.232;7.560;2023-02-11T07:38:31;9.80;63.60
56729;DHT22;42612;52.232;7.560;2023-02-11T07:41:05;9.80;63.60
56729;DHT22;42612;52.232;7.560;2023-02-11T07:43:33;9.80;63.80
56729;DHT22;42612;52.232;7.560;2023-02-11T07:46:02;9.80;63.70
56729;DHT22;42612;52.232;7.560;2023-02-11T07:48:29;9.80;63.90
56729;DHT22;42612;52.232;7.560;2023-02-11T07:50:54;9.80;63.70
56729;DHT22;42612;52.232;7.560;2023-02-11T07:53:21;9.80;63.80
56729;DHT22;42612;52.232;7.560;2023-02-11T07:55:46;9.80;63.80
56729;DHT22;42612;52.232;7.560;2023-02-11T07:58:12;9.90;63.90
56729;DHT22;42612;52.232;7.560;2023-02-11T08:00:38;9.80;64.00
56729;DHT22;42612;52.232;7.560;2023-02-11T08:03:03;9.80;64.00
56729;DHT22;42612;52.232;7.560;2023-02-11T08:05:29;9.80;64.10
56729;DHT22;42612;52.232;7.560;2023-02-11T08:07:55;9.80;64.10
56729;DHT22;42612;52.232;7.560;2023-02-11T08:10:20;9.80;64.20
56729;DHT22;42612;52.232;7.560;2023-02-11T08:12:46;9.90;64.30
56729;DHT22;42612;52.232;7.560;2023-02-11T08:15:12;9.90;64.30
56729;DHT22;42612;52.232;7.560;2023-02-11T08:17:38;9.90;64.20
56729;DHT22;42612;52.232;7.560;2023-02-11T08:20:05;9.90;64.30
56729;DHT22;42612;52.232;7.560;2023-02-11T08:22:32;9.90;64.40
56729;DHT22;42612;52.232;7.560;2023-02-11T08:24:58;9.90;64.40
56729;DHT22;42612;52.232;7.560;2023-02-11T08:27:25;9.90;64.30
56729;DHT22;42612;52.232;7.560;2023-02-11T08:29:52;9.90;64.40
56729;DHT22;42612;52.232;7.560;2023-02-11T08:32:18;9.90;64.50
56729;DHT22;42612;52.232;7.560;2023-02-11T08:34:44;9.90;64.50
56729;DHT22;42612;52.232;7.560;2023-02-11T08:37:10;9.90;64.60
56729;DHT22;42612;52.232;7.560;2023-02-11T08:39:36;9.90;64.60
56729;DHT22;42612;52.232;7.560;2023-02-11T08:42:02;9.90;64.60
56729;DHT22;42612;52.232;7.560;2023-02-11T08:44:28;10.00;64.80
56729;DHT22;42612;52.232;7.560;2023-02-11T08:46:54;10.00;64.80
56729;DHT22;42612;52.232;7.560;2023-02-11T08:49:20;10.00;64.80
56729;DHT22;42612;52.232;7.560;2023-02-11T08:51:47;10.00;64.80
56729;DHT22;42612;52.232;7.560;2023-02-11T08:54:14;10.00;64.80
56729;DHT22;42612;52.232;7.560;2023-02-11T08:56:40;10.00;64.80
56729;DHT22;42612;52.232;7.560;2023-02-11T08:59:06;10.00;64.80
56729;DHT22;42612;52.232;7.560;2023-02-11T09:01:34;10.00;64.80
56729;DHT22;42612;52.232;7.560;2023-02-11T09:04:00;10.10;65.00
56729;DHT22;42612;52.232;7.560;2023-02-11T09:06:26;10.10;64.90
56729;DHT22;42612;52.232;7.560;2023-02-11T09:08:54;10.00;64.90
56729;DHT22;42612;52.232;7.560;2023-02-11T09:11:27;10.10;64.90
56729;DHT22;42612;52.232;7.560;2023-02-11T09:13:54;10.10;65.20
56729;DHT22;42612;52.232;7.560;2023-02-11T09:16:22;10.10;64.90
56729;DHT22;42612;52.232;7.560;2023-02-11T09:18:50;10.10;65.10
56729;DHT22;42612;52.232;7.560;2023-02-11T09:21:17;10.10;65.20
56729;DHT22;42612;52.232;7.560;2023-02-11T09:23:43;10.10;65.20
56729;DHT22;42612;52.232;7.560;2023-02-11T09:26:15;10.10;65.20
56729;DHT22;42612;52.232;7.560;2023-02-11T09:28:42;10.10;65.30
56729;DHT22;42612;52.232;7.560;2023-02-11T09:31:11;10.20;65.30
56729;DHT22;42612;52.232;7.560;2023-02-11T09:33:41;10.20;65.40
56729;DHT22;42612;52.232;7.560;2023-02-11T09:36:13;10.20;65.30
56729;DHT22;42612;52.232;7.560;2023-02-11T09:38:42;10.20;65.40
56729;DHT22;42612;52.232;7.560;2023-02-11T09:43:52;10.30;66.10
56729;DHT22;42612;52.232;7.560;2023-02-11T09:46:22;10.30;65.50
56729;DHT22;42612;52.232;7.560;2023-02-11T09:48:50;10.30;65.40
56729;DHT22;42612;52.232;7.560;2023-02-11T09:51:38;10.30;66.00
56729;DHT22;42612;52.232;7.560;2023-02-11T09:54:22;10.40;65.60
56729;DHT22;42612;52.232;7.560;2023-02-11T09:56:53;10.40;65.70
56729;DHT22;42612;52.232;7.560;2023-02-11T09:59:18;10.40;65.10
56729;DHT22;42612;52.232;7.560;2023-02-11T10:05:20;10.40;66.00
56729;DHT22;42612;52.232;7.560;2023-02-11T10:08:32;10.40;65.20
56729;DHT22;42612;52.232;7.560;2023-02-11T10:18:05;10.40;65.50
56729;DHT22;42612;52.232;7.560;2023-02-11T10:23:58;10.40;65.70
56729;DHT22;42612;52.232;7.560;2023-02-11T10:26:26;10.40;65.10
56729;DHT22;42612;52.232;7.560;2023-02-11T10:28:59;10.50;65.30
56729;DHT22;42612;52.232;7.560;2023-02-11T10:31:34;10.50;65.50
56729;DHT22;42612;52.232;7.560;2023-02-11T10:34:05;10.50;65.70
56729;DHT22;42612;52.232;7.560;2023-02-11T10:36:36;10.50;65.40
56729;DHT22;42612;52.232;7.560;2023-02-11T10:39:19;10.50;65.40
56729;DHT22;42612;52.232;7.560;2023-02-11T10:41:53;10.50;65.90
56729;DHT22;42612;52.232;7.560;2023-02-11T10:44:35;10.50;65.40
56729;DHT22;42612;52.232;7.560;2023-02-11T10:47:16;10.60;65.60
56729;DHT22;42612;52.232;7.560;2023-02-11T10:49:45;10.60;65.90
56729;DHT22;42612;52.232;7.560;2023-02-11T10:52:20;10.60;65.30
56729;DHT22;42612;52.232;7.560;2023-02-11T10:55:13;10.60;65.80
56729;DHT22;42612;52.232;7.560;2023-02-11T10:57:50;10.60;66.00
56729;DHT22;42612;52.232;7.560;2023-02-11T11:02:43;10.60;65.40
56729;DHT22;42612;52.232;7.560;2023-02-11T11:05:16;10.70;65.50
56729;DHT22;42612;52.232;7.560;2023-02-11T11:07:56;10.70;65.80
56729;DHT22;42612;52.232;7.560;2023-02-11T11:10:33;10.70;66.00
56729;DHT22;42612;52.232;7.560;2023-02-11T11:13:32;10.70;65.80
56729;DHT22;42612;52.232;7.560;2023-02-11T11:18:37;10.70;66.00
56729;DHT22;42612;52.232;7.560;2023-02-11T11:21:05;10.80;65.50
56729;DHT22;42612;52.232;7.560;2023-02-11T11:24:16;10.70;65.50
56729;DHT22;42612;52.232;7.560;2023-02-11T11:26:51;10.80;66.40
56729;DHT22;42612;52.232;7.560;2023-02-11T11:29:32;10.80;65.70
56729;DHT22;42612;52.232;7.560;2023-02-11T11:32:09;10.90;65.60
56729;DHT22;42612;52.232;7.560;2023-02-11T11:34:40;10.80;65.60
56729;DHT22;42612;52.232;7.560;2023-02-11T11:42:33;10.90;66.00
56729;DHT22;42612;52.232;7.560;2023-02-11T11:45:23;11.00;65.90
56729;DHT22;42612;52.232;7.560;2023-02-11T11:48:14;10.90;66.40
56729;DHT22;42612;52.232;7.560;2023-02-11T11:51:00;11.00;66.50
56729;DHT22;42612;52.232;7.560;2023-02-11T11:56:29;11.00;65.90
56729;DHT22;42612;52.232;7.560;2023-02-11T11:59:00;11.00;65.70
56729;DHT22;42612;52.232;7.560;2023-02-11T12:01:53;11.00;65.70
56729;DHT22;42612;52.232;7.560;2023-02-11T12:05:43;11.10;66.20
56729;DHT22;42612;52.232;7.560;2023-02-11T12:07:59;11.10;66.20
56729;DHT22;42612;52.232;7.560;2023-02-11T12:10:41;11.10;66.00
56729;DHT22;42612;52.232;7.560;2023-02-11T12:13:24;11.20;65.90
56729;DHT22;42612;52.232;7.560;2023-02-11T12:16:17;11.10;65.60
56729;DHT22;42612;52.232;7.560;2023-02-11T12:24:47;11.20;66.20
56729;DHT22;42612;52.232;7.560;2023-02-11T12:27:55;11.30;65.90
56729;DHT22;42612;52.232;7.560;2023-02-11T12:33:02;11.30;65.50
56729;DHT22;42612;52.232;7.560;2023-02-11T12:35:55;11.40;65.80
56729;DHT22;42612;52.232;7.560;2023-02-11T12:39:01;11.40;65.90
56729;DHT22;42612;52.232;7.560;2023-02-11T12:42:24;11.40;66.20
56729;DHT22;42612;52.232;7.560;2023-02-11T12:50:51;11.50;65.40
56729;DHT22;42612;52.232;7.560;2023-02-11T12:56:29;11.60;65.50
56729;DHT22;42612;52.232;7.560;2023-02-11T12:58:58;11.60;65.50
56729;DHT22;42612;52.232;7.560;2023-02-11T13:01:38;11.70;65.40
56729;DHT22;42612;52.232;7.560;2023-02-11T13:04:19;11.70;65.60
56729;DHT22;42612;52.232;7.560;2023-02-11T13:07:02;11.70;65.70
56729;DHT22;42612;52.232;7.560;2023-02-11T13:09:41;11.70;65.50
56729;DHT22;42612;52.232;7.560;2023-02-11T13:12:12;11.80;65.50
56729;DHT22;42612;52.232;7.560;2023-02-11T13:15:00;11.80;65.30
56729;DHT22;42612;52.232;7.560;2023-02-11T13:17:35;11.80;65.20
56729;DHT22;42612;52.232;7.560;2023-02-11T13:20:24;11.80;65.20
56729;DHT22;42612;52.232;7.560;2023-02-11T13:23:11;11.80;65.50
56729;DHT22;42612;52.232;7.560;2023-02-11T13:26:18;11.80;65.20
56729;DHT22;42612;52.232;7.560;2023-02-11T13:28:52;11.90;65.50
56729;DHT22;42612;52.232;7.560;2023-02-11T13:31:22;11.90;65.00
56729;DHT22;42612;52.232;7.560;2023-02-11T13:33:51;11.90;64.90
56729;DHT22;42612;52.232;7.560;2023-02-11T13:36:20;11.90;64.90
56729;DHT22;42612;52.232;7.560;2023-02-11T13:38:57;11.90;65.00
56729;DHT22;42612;52.232;7.560;2023-02-11T13:41:37;11.90;65.20
56729;DHT22;42612;52.232;7.560;2023-02-11T13:49:38;11.90;65.30
56729;DHT22;42612;52.232;7.560;2023-02-11T13:52:21;11.90;65.20
56729;DHT22;42612;52.232;7.560;2023-02-11T13:54:51;11.90;65.20
56729;DHT22;42612;52.232;7.560;2023-02-11T13:57:26;11.90;64.90
56729;DHT22;42612;52.232;7.560;2023-02-11T14:11:49;12.00;65.10
56729;DHT22;42612;52.232;7.560;2023-02-11T14:14:30;12.00;65.10
56729;DHT22;42612;52.232;7.560;2023-02-11T14:19:37;12.00;64.80
56729;DHT22;42612;52.232;7.560;2023-02-11T14:22:28;12.10;65.00
56729;DHT22;42612;52.232;7.560;2023-02-11T14:24:58;12.10;65.30
56729;DHT22;42612;52.232;7.560;2023-02-11T14:36:38;12.10;65.10
56729;DHT22;42612;52.232;7.560;2023-02-11T14:39:57;12.10;65.20
56729;DHT22;42612;52.232;7.560;2023-02-11T14:42:30;12.20;65.30
56729;DHT22;42612;52.232;7.560;2023-02-11T14:45:01;12.20;64.70
56729;DHT22;42612;52.232;7.560;2023-02-11T14:47:43;12.20;64.80
56729;DHT22;42612;52.232;7.560;2023-02-11T14:50:32;12.20;65.00
56729;DHT22;42612;52.232;7.560;2023-02-11T14:53:03;12.20;65.10
56729;DHT22;42612;52.232;7.560;2023-02-11T14:55:36;12.20;64.80
56729;DHT22;42612;52.232;7.560;2023-02-11T15:01:21;12.30;65.10
56729;DHT22;42612;52.232;7.560;2023-02-11T15:03:52;12.30;65.10
56729;DHT22;42612;52.232;7.560;2023-02-11T15:06:36;12.30;64.60
56729;DHT22;42612;52.232;7.560;2023-02-11T15:09:22;12.30;64.60
56729;DHT22;42612;52.232;7.560;2023-02-11T15:11:55;12.30;64.40
56729;DHT22;42612;52.232;7.560;2023-02-11T15:16:57;12.30;64.60
56729;DHT22;42612;52.232;7.560;2023-02-11T15:19:33;12.30;64.60
56729;DHT22;42612;52.232;7.560;2023-02-11T15:22:05;12.30;64.50
56729;DHT22;42612;52.232;7.560;2023-02-11T15:24:33;12.30;64.50
56729;DHT22;42612;52.232;7.560;2023-02-11T15:27:02;12.30;64.50
56729;DHT22;42612;52.232;7.560;2023-02-11T15:29:42;12.40;64.60
56729;DHT22;42612;52.232;7.560;2023-02-11T15:32:13;12.40;64.50
56729;DHT22;42612;52.232;7.560;2023-02-11T15:34:47;12.40;64.50
56729;DHT22;42612;52.232;7.560;2023-02-11T15:37:22;12.40;64.50
56729;DHT22;42612;52.232;7.560;2023-02-11T15:39:50;12.40;64.60
56729;DHT22;42612;52.232;7.560;2023-02-11T15:42:26;12.40;64.50
56729;DHT22;42612;52.232;7.560;2023-02-11T15:47:39;12.50;64.70
56729;DHT22;42612;52.232;7.560;2023-02-11T15:50:17;12.50;64.40
56729;DHT22;42612;52.232;7.560;2023-02-11T15:52:48;12.50;64.30
56729;DHT22;42612;52.232;7.560;2023-02-11T15:55:16;12.50;64.30
56729;DHT22;42612;52.232;7.560;2023-02-11T15:57:52;12.50;64.30
56729;DHT22;42612;52.232;7.560;2023-02-11T16:00:22;12.50;64.40
56729;DHT22;42612;52.232;7.560;2023-02-11T16:02:49;12.50;64.20
56729;DHT22;42612;52.232;7.560;2023-02-11T16:05:31;12.60;64.20
56729;DHT22;42612;52.232;7.560;2023-02-11T16:07:58;12.60;64.40
56729;DHT22;42612;52.232;7.560;2023-02-11T16:10:28;12.50;64.10
56729;DHT22;42612;52.232;7.560;2023-02-11T16:15:42;12.60;64.30
56729;DHT22;42612;52.232;7.560;2023-02-11T16:18:21;12.50;64.30
56729;DHT22;42612;52.232;7.560;2023-02-11T16:20:49;12.60;64.20
56729;DHT22;42612;52.232;7.560;2023-02-11T16:23:21;12.50;64.10
56729;DHT22;42612;52.232;7.560;2023-02-11T16:26:20;12.50;64.20
56729;DHT22;42612;52.232;7.560;2023-02-11T16:28:47;12.60;65.10
56729;DHT22;42612;52.232;7.560;2023-02-11T16:31:12;12.50;64.00
56729;DHT22;42612;52.232;7.560;2023-02-11T16:33:38;12.50;64.00
56729;DHT22;42612;52.232;7.560;2023-02-11T16:36:14;12.50;64.00
56729;DHT22;42612;52.232;7.560;2023-02-11T16:38:43;12.50;64.20
56729;DHT22;42612;52.232;7.560;2023-02-11T16:41:08;12.50;64.00
56729;DHT22;42612;52.232;7.560;2023-02-11T16:43:37;12.50;64.10
56729;DHT22;42612;52.232;7.560;2023-02-11T16:46:04;12.50;64.00
56729;DHT22;42612;52.232;7.560;2023-02-11T16:48:31;12.40;64.00
56729;DHT22;42612;52.232;7.560;2023-02-11T16:50:57;12.50;64.10
56729;DHT22;42612;52.232;7.560;2023-02-11T16:53:23;12.50;64.00
56729;DHT22;42612;52.232;7.560;2023-02-11T16:55:50;12.50;64.10
56729;DHT22;42612;52.232;7.560;2023-02-11T16:58:17;12.50;64.00
56729;DHT22;42612;52.232;7.560;2023-02-11T17:00:44;12.50;64.10
56729;DHT22;42612;52.232;7.560;2023-02-11T17:03:14;12.40;64.00
56729;DHT22;42612;52.232;7.560;2023-02-11T17:05:42;12.40;64.30
56729;DHT22;42612;52.232;7.560;2023-02-11T17:08:10;12.40;63.80
56729;DHT22;42612;52.232;7.560;2023-02-11T17:10:36;12.40;63.90
56729;DHT22;42612;52.232;7.560;2023-02-11T17:13:02;12.40;64.00
56729;DHT22;42612;52.232;7.560;2023-02-11T17:15:29;12.40;64.00
56729;DHT22;42612;52.232;7.560;2023-02-11T17:17:56;12.40;64.00
56729;DHT22;42612;52.232;7.560;2023-02-11T17:20:22;12.40;64.10
56729;DHT22;42612;52.232;7.560;2023-02-11T17:22:49;12.40;64.10
56729;DHT22;42612;52.232;7.560;2023-02-11T17:25:16;12.40;64.00
56729;DHT22;42612;52.232;7.560;2023-02-11T17:27:42;12.40;64.00
56729;DHT22;42612;52.232;7.560;2023-02-11T17:30:09;12.40;64.00
56729;DHT22;42612;52.232;7.560;2023-02-11T17:32:37;12.40;64.00
56729;DHT22;42612;52.232;7.560;2023-02-11T17:35:03;12.40;64.00
56729;DHT22;42612;52.232;7.560;2023-02-11T17:37:30;12.40;64.00
56729;DHT22;42612;52.232;7.560;2023-02-11T17:39:56;12.40;63.90
56729;DHT22;42612;52.232;7.560;2023-02-11T17:42:22;12.40;63.90
56729;DHT22;42612;52.232;7.560;2023-02-11T17:44:47;12.40;64.00
56729;DHT22;42612;52.232;7.560;2023-02-11T17:47:13;12.40;63.90
56729;DHT22;42612;52.232;7.560;2023-02-11T17:49:39;12.40;63.90
56729;DHT22;42612;52.232;7.560;2023-02-11T17:52:05;12.50;63.90
56729;DHT22;42612;52.232;7.560;2023-02-11T17:54:31;12.40;63.90